LRBC/BCM METAR and TAF weather

Enter ICAO airport designator
Station Type Date Time Source
LRBC METAR 2019/12/07 15:00 UTC NOAA

LRBC 071500Z 16005KT 0550 R34/0650N FZFG BKN001 M02/M02 Q1013


Station Type Date Time Source
LRBC Decoded METAR 2019/12/07 15:00 UTC NOAA

Bacau, Romania (LRBC) 46-35N 026-58E 190M
Dec 07, 2019 - 10:00 AM EST / 2019.12.07 1500 UTC
Wind: from the SSE (160 degrees) at 6 MPH (5 KT):0
Visibility: less than 1 mile:0
Sky conditions: mostly cloudy
Weather: freezing fog
Temperature: 28 F (-2 C)
Windchill: 21 F (-6 C):1
Dew Point: 28 F (-2 C)
Relative Humidity: 100%
Pressure (altimeter): 29.91 in. Hg (1013 hPa)
ob: LRBC 071500Z 16005KT 0550 R34/0650N FZFG BKN001 M02/M02 Q1013
cycle: 15

Station Type Date Time Source
LRBC TAF 2010/08/31 20:30 UTC NOAA

TAF LRBC 312030Z 3121/0203 CNL

Example: see airport list